Time;durP1;ratioP1;P1;durP2;ratioP2;P2;SDS_P1;SDS_P2;PMS_P1;PMS_P2;Temp;Humidity;BMP_temperature;BMP_pressure;BME280_temperature;BME280_humidity;BME280_pressure;Samples;Min_cycle;Max_cycle;Signal;HPM_P1;HPM_P2
2024/04/02 00:01:31;;;;;;;1.40;1.30;;;10.30;99.90;;;;;;5049081;28;20540;-81
2024/04/02 00:04:11;;;;;;;1.40;1.30;;;10.30;99.90;;;;;;5053704;28;20564;-81
2024/04/02 00:06:37;;;;;;;1.10;1.10;;;10.20;99.90;;;;;;5049785;28;20482;-81
2024/04/02 00:09:05;;;;;;;1.30;1.30;;;10.20;99.90;;;;;;5051609;28;20488;-81
2024/04/02 00:11:31;;;;;;;1.17;1.17;;;10.20;99.90;;;;;;5051902;28;20965;-82
2024/04/02 00:13:59;;;;;;;1.10;1.10;;;10.20;99.90;;;;;;5059940;28;20555;-81
2024/04/02 00:16:26;;;;;;;1.20;1.20;;;10.10;99.90;;;;;;5055027;28;20541;-81
2024/04/02 00:18:53;;;;;;;1.20;1.20;;;10.00;99.90;;;;;;5056593;28;20480;-82
2024/04/02 00:21:20;;;;;;;1.27;1.27;;;10.00;99.90;;;;;;5056244;28;20618;-82
2024/04/02 00:23:47;;;;;;;1.40;1.30;;;10.00;99.90;;;;;;5054335;28;20593;-81
2024/04/02 00:26:13;;;;;;;1.40;1.30;;;10.00;99.90;;;;;;5051689;28;20559;-80
2024/04/02 00:28:40;;;;;;;1.30;1.30;;;10.00;99.90;;;;;;5054345;28;20493;-83
2024/04/02 00:31:13;;;;;;;1.27;1.27;;;9.90;99.90;;;;;;5033541;28;20541;-80
2024/04/02 00:33:40;;;;;;;1.43;1.33;;;10.00;99.90;;;;;;5056347;28;20442;-81
2024/04/02 00:36:06;;;;;;;1.20;1.20;;;9.80;99.90;;;;;;5057161;28;20453;-81
2024/04/02 00:38:34;;;;;;;1.20;1.20;;;9.90;99.90;;;;;;5055932;28;20564;-81
2024/04/02 00:41:00;;;;;;;1.70;1.60;;;10.00;99.90;;;;;;5054947;28;20544;-80
2024/04/02 00:43:28;;;;;;;1.33;1.23;;;10.00;99.90;;;;;;5052687;28;21197;-81
2024/04/02 00:45:55;;;;;;;1.40;1.40;;;9.90;99.90;;;;;;5052582;28;20656;-81
2024/04/02 00:48:24;;;;;;;1.40;1.30;;;10.00;99.90;;;;;;5053510;28;20572;-81
2024/04/02 00:50:52;;;;;;;1.20;1.20;;;9.90;99.90;;;;;;5053534;28;20459;-80
2024/04/02 00:53:21;;;;;;;1.40;1.30;;;9.90;99.90;;;;;;5052273;28;20588;-80
2024/04/02 00:55:48;;;;;;;1.30;1.30;;;9.80;99.90;;;;;;5052322;28;20553;-81
2024/04/02 00:58:15;;;;;;;1.20;1.20;;;9.80;99.90;;;;;;5051681;28;21034;-81
2024/04/02 01:00:43;;;;;;;1.20;1.20;;;9.80;99.90;;;;;;5050037;28;20551;-81
2024/04/02 01:03:11;;;;;;;1.30;1.30;;;9.90;99.90;;;;;;5057239;28;21012;-82
2024/04/02 01:05:39;;;;;;;1.33;1.23;;;10.00;99.90;;;;;;5051615;28;20485;-81
2024/04/02 01:08:08;;;;;;;1.30;1.30;;;9.80;99.90;;;;;;5050628;28;20507;-82
2024/04/02 01:10:34;;;;;;;1.50;1.40;;;9.80;99.90;;;;;;5038503;28;21025;-81
2024/04/02 01:13:01;;;;;;;1.20;1.20;;;9.80;99.90;;;;;;5052129;28;20994;-82
2024/04/02 01:15:28;;;;;;;1.10;1.10;;;9.90;99.90;;;;;;5066766;28;20454;-81
2024/04/02 01:17:55;;;;;;;1.10;1.10;;;10.00;99.90;;;;;;5050981;28;20547;-80
2024/04/02 01:20:22;;;;;;;1.10;1.10;;;9.80;99.90;;;;;;5051593;28;20456;-82
2024/04/02 01:22:50;;;;;;;1.30;1.20;;;10.00;99.90;;;;;;5049598;28;20943;-81
2024/04/02 01:25:20;;;;;;;1.43;1.30;;;9.80;99.90;;;;;;5051070;28;20448;-80
2024/04/02 01:27:47;;;;;;;1.20;1.20;;;9.80;99.90;;;;;;5051757;28;20547;-81
2024/04/02 01:30:14;;;;;;;1.10;1.10;;;9.70;99.90;;;;;;5051415;28;20882;-82
2024/04/02 01:32:41;;;;;;;1.53;1.10;;;9.80;99.90;;;;;;5052022;28;20487;-81
2024/04/02 01:35:07;;;;;;;3.33;1.20;;;9.70;99.90;;;;;;5050764;28;20455;-81
2024/04/02 01:37:34;;;;;;;1.20;1.20;;;10.00;99.90;;;;;;5050268;28;20479;-83
2024/04/02 01:40:00;;;;;;;1.30;1.20;;;9.90;99.90;;;;;;5051737;28;20979;-82
2024/04/02 01:42:29;;;;;;;1.23;1.23;;;10.00;99.90;;;;;;5045268;28;20454;-81
2024/04/02 01:44:57;;;;;;;1.17;1.17;;;9.80;99.90;;;;;;5046707;28;20479;-81
2024/04/02 01:47:24;;;;;;;1.13;1.13;;;9.90;99.90;;;;;;5050616;28;21074;-80
2024/04/02 01:49:50;;;;;;;1.30;1.20;;;9.80;99.90;;;;;;5051158;28;20449;-83
2024/04/02 01:52:17;;;;;;;1.20;1.20;;;9.80;99.90;;;;;;5053928;28;20479;-81
2024/04/02 01:54:43;;;;;;;1.40;1.40;;;9.80;99.90;;;;;;5050275;28;20531;-82
2024/04/02 01:57:11;;;;;;;1.30;1.30;;;9.90;99.90;;;;;;5048800;28;20913;-81
2024/04/02 01:59:38;;;;;;;1.30;1.30;;;9.90;99.90;;;;;;5037537;28;20555;-81
2024/04/02 02:02:05;;;;;;;1.40;1.30;;;9.90;99.90;;;;;;5053999;28;20559;-81
2024/04/02 02:04:31;;;;;;;1.20;1.20;;;9.90;99.90;;;;;;5057277;28;20572;-83
2024/04/02 02:06:58;;;;;;;1.30;1.30;;;9.90;99.90;;;;;;5061459;28;20462;-81
2024/04/02 02:09:25;;;;;;;1.23;1.23;;;9.90;99.90;;;;;;5056376;28;20555;-81
2024/04/02 02:11:52;;;;;;;1.47;1.40;;;9.80;99.90;;;;;;5056800;28;20476;-82
2024/04/02 02:14:18;;;;;;;1.50;1.30;;;9.90;99.90;;;;;;5055410;28;20542;-82
2024/04/02 02:16:46;;;;;;;1.50;1.40;;;9.90;99.90;;;;;;5058811;28;21006;-82
2024/04/02 02:19:13;;;;;;;1.30;1.30;;;9.90;99.90;;;;;;5052911;28;20983;-81
2024/04/02 02:21:40;;;;;;;1.40;1.30;;;9.90;99.90;;;;;;5056932;28;20550;-81
2024/04/02 02:24:06;;;;;;;1.50;1.40;;;9.90;99.90;;;;;;5050952;28;20490;-80
2024/04/02 02:26:33;;;;;;;1.40;1.40;;;9.80;99.90;;;;;;5056793;28;20479;-83
2024/04/02 02:29:00;;;;;;;1.40;1.40;;;9.90;99.90;;;;;;5052351;28;20504;-82
2024/04/02 02:31:27;;;;;;;1.23;1.23;;;9.90;99.90;;;;;;5053775;28;20500;-81
2024/04/02 02:33:54;;;;;;;1.50;1.40;;;9.90;99.90;;;;;;5057442;28;20455;-80
2024/04/02 02:36:21;;;;;;;1.40;1.40;;;9.90;99.90;;;;;;5054327;28;20514;-81
2024/04/02 02:38:47;;;;;;;1.40;1.40;;;9.80;99.90;;;;;;5054541;28;20513;-81
2024/04/02 02:41:15;;;;;;;1.27;1.27;;;9.80;99.90;;;;;;5054283;28;20832;-81
2024/04/02 02:43:41;;;;;;;1.40;1.40;;;9.90;99.90;;;;;;5054793;28;20494;-82
2024/04/02 02:46:08;;;;;;;1.40;1.30;;;9.90;99.90;;;;;;5052733;28;20513;-82
2024/04/02 02:48:34;;;;;;;1.50;1.40;;;9.90;99.90;;;;;;5070621;28;20551;-82
2024/04/02 02:51:02;;;;;;;2.10;1.40;;;9.80;99.90;;;;;;5054885;28;20554;-81
2024/04/02 02:53:28;;;;;;;1.20;1.20;;;9.80;99.90;;;;;;5052494;28;20536;-81
2024/04/02 02:55:58;;;;;;;1.53;1.43;;;9.90;1.00;;;;;;5055975;28;20541;-80
2024/04/02 02:58:24;;;;;;;1.20;1.20;;;9.80;99.90;;;;;;5067670;28;20460;-82
2024/04/02 03:00:51;;;;;;;2.23;1.30;;;9.80;99.90;;;;;;5058842;28;20546;-82
2024/04/02 03:03:17;;;;;;;1.20;1.20;;;9.80;99.90;;;;;;5059951;28;21075;-81
2024/04/02 03:05:54;;;;;;;1.53;1.37;;;9.80;99.90;;;;;;5059456;28;20570;-80
2024/04/02 03:08:22;;;;;;;1.50;1.50;;;9.80;99.90;;;;;;5059075;28;20468;-80
2024/04/02 03:10:56;;;;;;;1.30;1.30;;;9.80;99.90;;;;;;5065623;28;20461;-81
2024/04/02 03:13:24;;;;;;;1.40;1.30;;;9.60;99.90;;;;;;5037886;28;20435;-81
2024/04/02 03:15:51;;;;;;;1.50;1.40;;;9.70;99.90;;;;;;5060710;28;20494;-81
2024/04/02 03:18:18;;;;;;;1.50;1.50;;;9.60;99.90;;;;;;5054529;28;20520;-81
2024/04/02 03:20:45;;;;;;;1.30;1.30;;;9.70;99.90;;;;;;5056977;28;20477;-81
2024/04/02 03:23:12;;;;;;;1.40;1.40;;;9.80;99.90;;;;;;5057059;28;20546;-80
2024/04/02 03:25:40;;;;;;;1.30;1.30;;;9.70;99.90;;;;;;5057755;28;20614;-80
2024/04/02 03:28:07;;;;;;;1.40;1.30;;;9.80;99.90;;;;;;5052626;28;20599;-81
2024/04/02 03:30:35;;;;;;;1.43;1.33;;;9.70;99.90;;;;;;5054849;28;20454;-81
2024/04/02 03:33:01;;;;;;;1.30;1.30;;;9.70;99.90;;;;;;5053450;28;20577;-78
2024/04/02 03:35:29;;;;;;;1.40;1.40;;;9.80;99.90;;;;;;5054952;28;20462;-83
2024/04/02 03:37:56;;;;;;;1.50;1.40;;;9.70;99.90;;;;;;5046087;28;20471;-82
2024/04/02 03:40:23;;;;;;;1.30;1.30;;;9.70;99.90;;;;;;5054350;28;20470;-81
2024/04/02 03:42:51;;;;;;;1.30;1.30;;;9.60;99.90;;;;;;5053682;28;20466;-82
2024/04/02 03:45:21;;;;;;;1.40;1.40;;;9.70;99.90;;;;;;5053309;28;21000;-82
2024/04/02 03:47:47;;;;;;;1.20;1.20;;;9.70;99.90;;;;;;5053378;28;21214;-82
2024/04/02 03:50:14;;;;;;;1.40;1.40;;;9.70;99.90;;;;;;5055092;28;20454;-81
2024/04/02 03:52:41;;;;;;;1.40;1.40;;;9.70;99.90;;;;;;5055443;28;20455;-82
2024/04/02 03:55:08;;;;;;;1.30;1.30;;;9.70;99.90;;;;;;5070363;28;20532;-80
2024/04/02 03:57:34;;;;;;;1.50;1.40;;;9.70;99.90;;;;;;5054069;28;20501;-81
2024/04/02 04:00:03;;;;;;;2.30;1.53;;;9.60;99.90;;;;;;5053114;28;20951;-81
2024/04/02 04:02:29;;;;;;;1.27;1.27;;;9.70;99.90;;;;;;5052501;28;20605;-81
2024/04/02 04:04:57;;;;;;;1.20;1.20;;;9.60;99.90;;;;;;5040493;28;20948;-81
2024/04/02 04:07:23;;;;;;;2.90;2.70;;;9.60;99.90;;;;;;5052973;28;20983;-80
2024/04/02 04:09:50;;;;;;;1.27;1.27;;;9.60;99.90;;;;;;5056568;28;20454;-80
2024/04/02 04:12:19;;;;;;;1.30;1.30;;;9.70;99.90;;;;;;5052790;28;20429;-80
2024/04/02 04:14:48;;;;;;;1.30;1.30;;;9.80;99.90;;;;;;5058130;28;20992;-79
2024/04/02 04:17:16;;;;;;;1.47;1.40;;;9.60;99.90;;;;;;5054687;28;20978;-80
2024/04/02 04:19:43;;;;;;;1.30;1.30;;;9.50;99.90;;;;;;5053371;28;20507;-80
2024/04/02 04:22:09;;;;;;;1.30;1.30;;;9.60;99.90;;;;;;5056014;28;20975;-80
2024/04/02 04:24:36;;;;;;;1.30;1.30;;;9.60;99.90;;;;;;5052089;28;20452;-81
2024/04/02 04:27:03;;;;;;;1.37;1.37;;;9.70;99.90;;;;;;5048845;28;20967;-81
2024/04/02 04:29:30;;;;;;;1.20;1.20;;;9.60;99.90;;;;;;5051060;28;20459;-79
2024/04/02 04:31:56;;;;;;;1.40;1.40;;;9.60;99.90;;;;;;5051788;28;20816;-80
2024/04/02 04:34:25;;;;;;;1.30;1.30;;;9.60;99.90;;;;;;5057400;28;20521;-79
2024/04/02 04:36:51;;;;;;;1.40;1.40;;;9.60;99.90;;;;;;5058581;28;20448;-81
2024/04/02 04:39:18;;;;;;;1.93;1.83;;;9.60;99.90;;;;;;5057096;28;20486;-81
2024/04/02 04:41:44;;;;;;;1.80;1.70;;;9.60;99.90;;;;;;5056817;28;20847;-80
2024/04/02 04:44:11;;;;;;;1.60;1.50;;;9.60;99.90;;;;;;5051092;28;20811;-80
2024/04/02 04:46:37;;;;;;;1.60;1.53;;;9.60;99.90;;;;;;5046004;28;20467;-79
2024/04/02 04:49:04;;;;;;;1.30;1.30;;;9.60;99.90;;;;;;5047612;28;20712;-81
2024/04/02 04:51:32;;;;;;;1.40;1.40;;;9.60;99.90;;;;;;5037549;28;20440;-80
2024/04/02 04:53:59;;;;;;;1.30;1.30;;;9.60;99.90;;;;;;5050095;28;20556;-81
2024/04/02 04:56:25;;;;;;;1.40;1.30;;;9.60;99.90;;;;;;5055685;28;20508;-80
2024/04/02 04:58:52;;;;;;;1.30;1.30;;;9.60;99.90;;;;;;5051785;28;20840;-82
2024/04/02 05:01:19;;;;;;;1.30;1.30;;;9.70;99.90;;;;;;5048946;28;20450;-81
2024/04/02 05:03:46;;;;;;;2.10;1.80;;;9.60;99.90;;;;;;5041471;28;20452;-81
2024/04/02 05:06:12;;;;;;;1.30;1.30;;;9.60;99.90;;;;;;5048200;28;21205;-79
2024/04/02 05:08:40;;;;;;;1.30;1.30;;;9.60;99.90;;;;;;5051184;28;20475;-79
2024/04/02 05:11:07;;;;;;;1.30;1.30;;;9.50;99.90;;;;;;5049715;28;20458;-80
2024/04/02 05:13:34;;;;;;;4.10;1.60;;;9.60;99.90;;;;;;5034315;28;20490;-80
2024/04/02 05:16:01;;;;;;;2.33;1.80;;;9.50;99.90;;;;;;5051963;28;20450;-80
2024/04/02 05:18:29;;;;;;;1.47;1.40;;;9.40;99.90;;;;;;5054976;28;20467;-79
2024/04/02 05:20:55;;;;;;;1.50;1.40;;;9.40;99.90;;;;;;5053775;28;20550;-80
2024/04/02 05:23:22;;;;;;;1.50;1.50;;;9.60;99.90;;;;;;5053623;28;20551;-81
2024/04/02 05:25:49;;;;;;;1.60;1.50;;;9.50;99.90;;;;;;5055240;28;20603;-80
2024/04/02 05:28:16;;;;;;;1.77;1.70;;;9.50;99.90;;;;;;5040121;28;20467;-80
2024/04/02 05:30:43;;;;;;;1.50;1.40;;;9.40;99.90;;;;;;5050743;28;20454;-79
2024/04/02 05:33:10;;;;;;;1.60;1.50;;;9.50;99.90;;;;;;5053670;28;21033;-79
2024/04/02 05:35:36;;;;;;;1.40;1.40;;;9.50;99.90;;;;;;5062018;28;20485;-79
2024/04/02 05:38:04;;;;;;;1.33;1.30;;;9.60;99.90;;;;;;5052634;28;20570;-80
2024/04/02 05:40:31;;;;;;;1.63;1.53;;;9.60;99.90;;;;;;5065454;28;20575;-78
2024/04/02 05:43:00;;;;;;;1.33;1.33;;;9.60;99.90;;;;;;5058055;28;20474;-80
2024/04/02 05:45:26;;;;;;;1.47;1.47;;;9.50;99.90;;;;;;5042654;28;20452;-79
2024/04/02 05:47:54;;;;;;;1.57;1.40;;;9.50;1.00;;;;;;5057981;28;20694;-79
2024/04/02 05:50:20;;;;;;;1.30;1.30;;;9.60;99.90;;;;;;5057051;28;21240;-79
2024/04/02 05:52:48;;;;;;;1.30;1.30;;;9.50;99.90;;;;;;5055193;28;20487;-79
2024/04/02 05:55:14;;;;;;;1.50;1.40;;;9.50;99.90;;;;;;5041031;28;20482;-80
2024/04/02 05:57:42;;;;;;;1.40;1.30;;;9.40;99.90;;;;;;5059438;28;20559;-79
2024/04/02 06:00:10;;;;;;;1.30;1.30;;;9.50;99.90;;;;;;5054842;28;20603;-80
2024/04/02 06:02:38;;;;;;;1.50;1.40;;;9.40;99.90;;;;;;5058103;28;20492;-80
2024/04/02 06:05:04;;;;;;;2.90;1.43;;;9.50;1.00;;;;;;5056806;28;20550;-80
2024/04/02 06:07:32;;;;;;;1.40;1.40;;;9.50;99.90;;;;;;5056161;28;21016;-80
2024/04/02 06:09:58;;;;;;;1.40;1.30;;;9.60;99.90;;;;;;5058951;28;20549;-79
2024/04/02 06:12:26;;;;;;;1.50;1.40;;;9.70;99.90;;;;;;5057279;28;20486;-80
2024/04/02 06:14:52;;;;;;;1.30;1.30;;;9.80;99.90;;;;;;5059751;28;20515;-80
2024/04/02 06:17:20;;;;;;;1.40;1.40;;;9.90;99.90;;;;;;5056280;28;20534;-78
2024/04/02 06:19:46;;;;;;;1.43;1.43;;;9.90;99.90;;;;;;5040446;28;20471;-81
2024/04/02 06:22:14;;;;;;;1.80;1.60;;;9.90;99.90;;;;;;5060018;28;20474;-80
2024/04/02 06:24:40;;;;;;;1.40;1.40;;;9.90;99.90;;;;;;5057787;28;20983;-78
2024/04/02 06:27:07;;;;;;;1.30;1.30;;;9.90;99.90;;;;;;5059703;28;20452;-79
2024/04/02 06:29:34;;;;;;;1.40;1.30;;;9.90;1.00;;;;;;5058350;28;20468;-80
2024/04/02 06:32:01;;;;;;;1.47;1.47;;;9.90;99.90;;;;;;5057466;28;20489;-79
2024/04/02 06:34:29;;;;;;;1.40;1.40;;;9.80;99.90;;;;;;5060983;28;20454;-79
2024/04/02 06:36:56;;;;;;;1.40;1.40;;;9.80;1.00;;;;;;5058091;28;20491;-80
2024/04/02 06:39:22;;;;;;;1.50;1.43;;;9.70;99.90;;;;;;5050750;28;21396;-78
2024/04/02 06:41:49;;;;;;;1.50;1.40;;;9.80;1.00;;;;;;5045433;28;20969;-79
2024/04/02 06:44:16;;;;;;;1.40;1.40;;;9.80;1.00;;;;;;5053926;28;20195;-78
2024/04/02 06:46:43;;;;;;;1.40;1.40;;;9.80;1.00;;;;;;5057819;28;20454;-77
2024/04/02 06:49:09;;;;;;;1.53;1.50;;;9.90;1.00;;;;;;5055002;28;20478;-80
2024/04/02 06:51:38;;;;;;;1.70;1.60;;;9.90;1.00;;;;;;5054918;28;20483;-79
2024/04/02 06:54:04;;;;;;;1.60;1.60;;;10.00;1.00;;;;;;5053739;28;20436;-78
2024/04/02 06:56:32;;;;;;;1.80;1.70;;;9.90;1.00;;;;;;5057503;28;20446;-78
2024/04/02 06:58:58;;;;;;;3.57;1.50;;;10.00;1.00;;;;;;5057159;28;21197;-80
2024/04/02 07:01:25;;;;;;;1.60;1.60;;;10.00;1.00;;;;;;5054716;28;20464;-79
2024/04/02 07:03:51;;;;;;;1.60;1.60;;;9.90;1.00;;;;;;5056694;28;21264;-81
2024/04/02 07:06:18;;;;;;;1.60;1.60;;;10.10;1.00;;;;;;5044482;28;20455;-81
2024/04/02 07:08:46;;;;;;;1.70;1.60;;;10.10;1.00;;;;;;5053871;28;20484;-81
2024/04/02 07:11:14;;;;;;;1.73;1.73;;;10.20;1.00;;;;;;5056489;28;20446;-78
2024/04/02 07:13:40;;;;;;;1.63;1.60;;;10.30;1.00;;;;;;5057771;28;20965;-79
2024/04/02 07:16:11;;;;;;;1.70;1.60;;;10.40;1.00;;;;;;5036756;28;20439;-80
2024/04/02 07:18:37;;;;;;;1.40;1.40;;;10.50;1.00;;;;;;5054562;28;20480;-80
2024/04/02 07:21:05;;;;;;;2.20;2.07;;;10.70;1.00;;;;;;5055601;28;20482;-78
2024/04/02 07:23:32;;;;;;;1.50;1.40;;;10.80;1.00;;;;;;5054924;28;20542;-79
2024/04/02 07:26:00;;;;;;;1.70;1.60;;;10.90;99.90;;;;;;5053824;28;20546;-80
2024/04/02 07:28:27;;;;;;;1.43;1.33;;;11.00;99.90;;;;;;5054565;28;20932;-80
2024/04/02 07:30:55;;;;;;;1.50;1.40;;;11.00;99.90;;;;;;5055142;28;20468;-81
2024/04/02 07:33:21;;;;;;;1.67;1.50;;;10.80;99.90;;;;;;5055495;28;20474;-80
2024/04/02 07:35:49;;;;;;;1.60;1.50;;;10.80;99.90;;;;;;5061507;28;20519;-80
2024/04/02 07:38:15;;;;;;;1.37;1.37;;;10.80;99.90;;;;;;5054129;28;21373;-79
2024/04/02 07:40:42;;;;;;;3.00;1.43;;;10.70;99.90;;;;;;5036951;28;21082;-79
2024/04/02 07:43:10;;;;;;;2.40;1.50;;;10.80;99.90;;;;;;5055009;28;20446;-79
2024/04/02 07:45:38;;;;;;;3.67;1.60;;;10.90;99.90;;;;;;5054898;28;20449;-79
2024/04/02 07:48:05;;;;;;;1.50;1.40;;;10.90;99.90;;;;;;5052426;28;20465;-80
2024/04/02 07:50:34;;;;;;;1.70;1.60;;;11.00;99.90;;;;;;5057940;28;20454;-79
2024/04/02 07:53:01;;;;;;;1.50;1.50;;;11.00;99.90;;;;;;5053069;28;20473;-79
2024/04/02 07:55:29;;;;;;;1.60;1.50;;;11.20;99.90;;;;;;5037179;28;20515;-79
2024/04/02 07:57:55;;;;;;;1.50;1.50;;;11.50;99.90;;;;;;5054996;28;21344;-78
2024/04/02 08:00:24;;;;;;;1.93;1.77;;;11.60;99.90;;;;;;5055814;28;20489;-79
2024/04/02 08:02:50;;;;;;;1.60;1.50;;;11.50;99.90;;;;;;5053213;28;21186;-79
2024/04/02 08:05:17;;;;;;;1.83;1.47;;;11.40;99.90;;;;;;5052774;28;20450;-78
2024/04/02 08:07:45;;;;;;;3.17;1.40;;;11.40;99.90;;;;;;5052659;28;20505;-80
2024/04/02 08:10:12;;;;;;;1.83;1.60;;;11.50;99.90;;;;;;5050030;28;20820;-78
2024/04/02 08:12:39;;;;;;;2.00;1.40;;;11.50;99.90;;;;;;5053383;28;20466;-81
2024/04/02 08:15:07;;;;;;;1.80;1.70;;;11.50;99.90;;;;;;5057388;28;20487;-79
2024/04/02 08:17:34;;;;;;;2.03;1.40;;;11.50;99.90;;;;;;5046869;28;20528;-82
2024/04/02 08:20:03;;;;;;;2.10;1.57;;;11.40;99.90;;;;;;5055168;28;20623;-78
2024/04/02 08:22:29;;;;;;;2.47;1.70;;;11.50;99.90;;;;;;5058366;28;20490;-81
2024/04/02 08:24:56;;;;;;;4.40;2.33;;;11.50;99.90;;;;;;5052628;28;21321;-79
2024/04/02 08:27:23;;;;;;;1.50;1.40;;;11.50;99.90;;;;;;5050757;28;20489;-79
2024/04/02 08:29:50;;;;;;;1.60;1.40;;;11.40;99.90;;;;;;5052874;28;20445;-82
2024/04/02 08:32:16;;;;;;;1.70;1.60;;;11.30;99.90;;;;;;5057682;28;20516;-79
2024/04/02 08:34:45;;;;;;;1.50;1.40;;;11.30;99.90;;;;;;5052895;28;20441;-81
2024/04/02 08:37:11;;;;;;;2.30;1.70;;;11.20;99.90;;;;;;5053416;28;20455;-79
2024/04/02 08:39:40;;;;;;;1.77;1.40;;;11.10;99.90;;;;;;5049175;28;20563;-79
2024/04/02 08:42:07;;;;;;;1.40;1.40;;;11.10;99.90;;;;;;5059471;28;20663;-80
2024/04/02 08:44:35;;;;;;;3.27;2.90;;;11.20;99.90;;;;;;5056459;28;20463;-80
2024/04/02 08:47:02;;;;;;;2.90;1.90;;;11.20;99.90;;;;;;5052010;28;20455;-79
2024/04/02 08:49:32;;;;;;;4.93;1.70;;;11.20;99.90;;;;;;5053328;28;20521;-78
2024/04/02 08:52:00;;;;;;;3.10;1.60;;;11.20;99.90;;;;;;5056147;28;20953;-79
2024/04/02 08:54:28;;;;;;;1.47;1.33;;;11.20;99.90;;;;;;5054699;28;20464;-80
2024/04/02 08:56:55;;;;;;;3.17;1.40;;;11.30;99.90;;;;;;5052950;28;20481;-78
2024/04/02 08:59:26;;;;;;;1.50;1.50;;;11.30;99.90;;;;;;5056520;28;20998;-81
2024/04/02 09:01:55;;;;;;;1.60;1.50;;;11.10;99.90;;;;;;5054722;28;21046;-79
2024/04/02 09:04:24;;;;;;;1.70;1.60;;;11.10;99.90;;;;;;5053555;28;20443;-82
2024/04/02 09:06:50;;;;;;;2.47;1.70;;;11.20;99.90;;;;;;5037447;28;20451;-79
2024/04/02 09:09:22;;;;;;;1.63;1.53;;;11.20;99.90;;;;;;5053636;28;20471;-81
2024/04/02 09:11:50;;;;;;;1.60;1.50;;;11.20;99.90;;;;;;5054842;28;20816;-80
2024/04/02 09:14:17;;;;;;;1.50;1.40;;;11.20;99.90;;;;;;5056853;28;21020;-79
2024/04/02 09:16:43;;;;;;;1.63;1.50;;;11.50;99.90;;;;;;5057677;28;20951;-77
2024/04/02 09:19:11;;;;;;;1.57;1.57;;;11.50;99.90;;;;;;5057752;28;20472;-80
2024/04/02 09:21:37;;;;;;;1.50;1.50;;;11.50;99.90;;;;;;5058292;28;20469;-79
2024/04/02 09:24:06;;;;;;;2.20;1.93;;;11.60;99.90;;;;;;5057464;28;20480;-77
2024/04/02 09:26:35;;;;;;;2.00;1.80;;;11.80;99.90;;;;;;5041522;28;21424;-78
2024/04/02 09:29:02;;;;;;;4.10;2.77;;;11.90;99.90;;;;;;5055159;28;20474;-80
2024/04/02 09:31:31;;;;;;;1.77;1.67;;;12.10;99.90;;;;;;5056375;28;20450;-79
2024/04/02 09:34:03;;;;;;;1.90;1.60;;;12.10;99.90;;;;;;5058711;28;20835;-79
2024/04/02 09:36:51;;;;;;;3.43;1.57;;;12.20;99.90;;;;;;5052808;28;20446;-78
2024/04/02 09:39:21;;;;;;;3.27;1.57;;;12.20;99.90;;;;;;5058803;28;20475;-78
2024/04/02 09:41:50;;;;;;;2.07;1.63;;;12.20;99.90;;;;;;5055620;28;20472;-78
2024/04/02 09:44:23;;;;;;;1.50;1.40;;;12.30;99.90;;;;;;5054347;28;21238;-78
2024/04/02 09:46:51;;;;;;;3.33;1.50;;;12.40;99.90;;;;;;5056444;28;20459;-79
2024/04/02 09:49:20;;;;;;;1.47;1.37;;;12.60;99.90;;;;;;5056441;28;20466;-80
2024/04/02 09:51:48;;;;;;;1.50;1.30;;;12.70;99.90;;;;;;5040141;28;20438;-80
2024/04/02 09:54:16;;;;;;;1.30;1.20;;;12.70;99.90;;;;;;5058406;28;20472;-80
2024/04/02 09:56:43;;;;;;;2.10;1.47;;;12.60;99.90;;;;;;5057634;28;20458;-78
2024/04/02 09:59:13;;;;;;;1.90;1.40;;;12.60;99.90;;;;;;5054925;28;20828;-80
2024/04/02 10:01:41;;;;;;;1.70;1.60;;;12.50;99.90;;;;;;5054967;28;20480;-80
2024/04/02 10:04:10;;;;;;;3.13;1.70;;;12.50;99.90;;;;;;5038509;28;20513;-78
2024/04/02 10:06:37;;;;;;;1.73;1.63;;;12.40;99.90;;;;;;5054189;28;20481;-77
2024/04/02 10:09:06;;;;;;;2.07;1.40;;;12.40;99.90;;;;;;5052885;28;20914;-78
2024/04/02 10:11:40;;;;;;;1.90;1.37;;;12.50;99.90;;;;;;5056125;28;20951;-78
2024/04/02 10:14:08;;;;;;;2.20;1.50;;;12.50;99.90;;;;;;5056276;28;20492;-78
2024/04/02 10:16:40;;;;;;;1.67;1.57;;;12.60;99.90;;;;;;5053252;28;20446;-79
2024/04/02 10:19:12;;;;;;;4.70;2.00;;;12.70;99.90;;;;;;5054119;28;20571;-79
2024/04/02 10:21:39;;;;;;;3.43;1.57;;;12.80;99.90;;;;;;5055929;28;20908;-78
2024/04/02 10:24:08;;;;;;;1.60;1.37;;;12.80;99.90;;;;;;5062530;28;20494;-77
2024/04/02 10:26:37;;;;;;;3.60;1.60;;;12.70;99.90;;;;;;5070667;28;20571;-79
2024/04/02 10:29:04;;;;;;;1.60;1.50;;;12.70;99.90;;;;;;5063020;28;20470;-79
2024/04/02 10:31:39;;;;;;;2.07;1.40;;;12.40;99.90;;;;;;5056261;28;20443;-78
2024/04/02 10:34:08;;;;;;;1.70;1.70;;;12.20;99.90;;;;;;5062735;28;20450;-79
2024/04/02 10:36:35;;;;;;;1.83;1.73;;;12.00;99.90;;;;;;5056089;28;20449;-79
2024/04/02 10:39:03;;;;;;;1.70;1.60;;;11.80;99.90;;;;;;5052815;28;21026;-79
2024/04/02 10:41:30;;;;;;;2.20;1.83;;;11.80;99.90;;;;;;5053657;28;20561;-80
2024/04/02 10:43:58;;;;;;;2.70;1.53;;;11.90;99.90;;;;;;5057101;28;20440;-79
2024/04/02 10:46:28;;;;;;;1.60;1.50;;;11.90;99.90;;;;;;5056746;28;20453;-78
2024/04/02 10:49:00;;;;;;;2.90;1.77;;;12.00;99.90;;;;;;5052719;28;21029;-79
2024/04/02 10:51:28;;;;;;;2.07;1.97;;;12.20;99.90;;;;;;5051846;28;20465;-78
2024/04/02 10:53:55;;;;;;;1.83;1.50;;;12.30;99.90;;;;;;5054500;28;20708;-80
2024/04/02 10:56:23;;;;;;;1.53;1.40;;;12.30;99.90;;;;;;5055950;28;20547;-79
2024/04/02 10:58:51;;;;;;;3.87;2.13;;;12.40;99.90;;;;;;5053471;28;20577;-80
2024/04/02 11:01:18;;;;;;;2.33;2.17;;;12.50;99.90;;;;;;5052867;28;20506;-79
2024/04/02 11:03:48;;;;;;;2.10;1.80;;;12.60;99.90;;;;;;5057789;28;21063;-78
2024/04/02 11:06:16;;;;;;;1.30;1.30;;;12.70;99.90;;;;;;5050008;28;20773;-82
2024/04/02 11:08:44;;;;;;;1.50;1.40;;;12.70;99.90;;;;;;5049119;28;20529;-79
2024/04/02 11:11:18;;;;;;;1.60;1.50;;;12.80;99.90;;;;;;5045102;28;20569;-78
2024/04/02 11:13:45;;;;;;;1.63;1.53;;;12.90;99.90;;;;;;5054658;28;20512;-81
2024/04/02 11:16:12;;;;;;;2.13;1.67;;;12.70;99.90;;;;;;5051724;28;20462;-79
2024/04/02 11:18:39;;;;;;;2.43;1.30;;;12.60;99.90;;;;;;5052670;28;20575;-80
2024/04/02 11:21:05;;;;;;;1.83;1.30;;;12.50;99.90;;;;;;5046437;28;20485;-78
2024/04/02 11:26:20;;;;;;;2.00;1.60;;;12.30;99.90;;;;;;5051854;28;20495;-78
2024/04/02 11:28:48;;;;;;;1.60;1.43;;;12.40;99.90;;;;;;5052363;28;20560;-78
2024/04/02 11:31:16;;;;;;;1.60;1.50;;;12.40;99.90;;;;;;5054584;28;20463;-78
2024/04/02 11:33:42;;;;;;;2.30;1.43;;;12.50;99.90;;;;;;5054334;28;20566;-78
2024/04/02 11:36:11;;;;;;;1.47;1.37;;;12.60;99.90;;;;;;5053480;28;20459;-79
2024/04/02 11:38:38;;;;;;;1.80;1.60;;;12.50;99.90;;;;;;5052455;28;20573;-78
2024/04/02 11:41:08;;;;;;;1.60;1.50;;;12.40;99.90;;;;;;5032838;28;20480;-82
2024/04/02 11:43:34;;;;;;;1.80;1.70;;;12.50;99.90;;;;;;5053632;28;20546;-79
2024/04/02 11:46:02;;;;;;;1.53;1.43;;;12.60;99.90;;;;;;5061986;28;21101;-79
2024/04/02 11:48:29;;;;;;;1.73;1.63;;;12.60;99.90;;;;;;5067940;28;20576;-81
2024/04/02 11:50:56;;;;;;;1.80;1.53;;;12.70;99.90;;;;;;5052244;28;20532;-80
2024/04/02 11:53:22;;;;;;;2.33;1.70;;;12.70;99.90;;;;;;5034546;28;20887;-80
2024/04/02 11:55:51;;;;;;;1.40;1.40;;;12.70;99.90;;;;;;5052602;28;20560;-81
2024/04/02 12:01:04;;;;;;;3.03;1.50;;;12.70;99.90;;;;;;5052079;28;21194;-78
2024/04/02 12:03:31;;;;;;;3.77;1.60;;;12.60;99.90;;;;;;5061747;28;20575;-80
2024/04/02 12:05:59;;;;;;;1.53;1.40;;;12.60;99.90;;;;;;5053519;28;20461;-78
2024/04/02 12:08:27;;;;;;;2.10;1.90;;;12.50;99.90;;;;;;5052903;28;20902;-79
2024/04/02 12:10:55;;;;;;;1.83;1.60;;;12.60;99.90;;;;;;5054621;28;20536;-79
2024/04/02 12:13:23;;;;;;;3.77;2.10;;;12.70;99.90;;;;;;5050459;28;20465;-78
2024/04/02 12:15:49;;;;;;;2.10;1.40;;;12.70;99.90;;;;;;5060165;28;20815;-80
2024/04/02 12:18:17;;;;;;;1.43;1.30;;;12.70;99.90;;;;;;5053178;28;20888;-79
2024/04/02 12:20:44;;;;;;;1.30;1.30;;;12.90;99.90;;;;;;5048176;28;20473;-80
2024/04/02 12:23:12;;;;;;;1.30;1.30;;;12.90;99.90;;;;;;5034459;28;20456;-80
2024/04/02 12:25:38;;;;;;;1.60;1.50;;;12.90;99.90;;;;;;5054349;28;20457;-79
2024/04/02 12:28:07;;;;;;;1.47;1.47;;;12.90;99.90;;;;;;5052296;28;20482;-81
2024/04/02 12:30:34;;;;;;;1.73;1.40;;;12.90;99.90;;;;;;5059481;28;20439;-79
2024/04/02 12:33:01;;;;;;;1.60;1.50;;;12.90;99.90;;;;;;5056991;28;20589;-81
2024/04/02 12:35:29;;;;;;;1.73;1.60;;;12.80;99.90;;;;;;5054224;28;20923;-79
2024/04/02 12:37:55;;;;;;;1.50;1.40;;;12.90;99.90;;;;;;5055110;28;20481;-78
2024/04/02 12:40:22;;;;;;;1.90;1.57;;;12.90;99.90;;;;;;5055326;28;20443;-79
2024/04/02 12:42:48;;;;;;;1.70;1.60;;;13.00;99.90;;;;;;5053482;28;20443;-82
2024/04/02 12:45:17;;;;;;;1.60;1.50;;;13.00;99.90;;;;;;5047990;28;20544;-79
2024/04/02 12:47:45;;;;;;;1.60;1.50;;;13.10;99.90;;;;;;5051734;28;20462;-80
2024/04/02 12:50:13;;;;;;;1.50;1.40;;;13.20;99.90;;;;;;5054405;28;20457;-80
2024/04/02 12:52:39;;;;;;;3.27;1.30;;;13.20;99.90;;;;;;5055388;28;20451;-79
2024/04/02 12:55:07;;;;;;;2.13;1.50;;;13.20;99.90;;;;;;5053240;28;20467;-80
2024/04/02 12:57:34;;;;;;;1.30;1.20;;;13.30;99.90;;;;;;5050531;28;20446;-79
2024/04/02 13:00:01;;;;;;;1.40;1.40;;;13.40;99.90;;;;;;5032210;28;20457;-80